Dubrovnik, Hrvatska

01:43 PM CEST on Srpanj 04, 2015 (GMT +0200)
Cilipi | | Change Station
CLOSE
Current Station
Zračna luka
Location: Dubrovnik,
Visina: 541 ft
Nearby Weather Stations

Elev 541 ft 42.56 °N, 18.27 °E | Updated 13 minutes ago

Clear
Vedro
82 °F
Feels Like 82 °F
S
10
Vjetar Varijabla smjera vjetra Vjetar from Zapad

Danas
High -- | Low -- °F
--% Chance of Precip.
Jučer
High -- | Low -- °F
Precip. -- u
5:14 AM 8:27 PM
Zadnja četvrt, 93% visible
Pritisak 30.18 u
Vidljivost -9999.0 milja
Oblaci
Točka rose 52 °F
Vlažnost 35%
Kiša 0.00 u
Visina snijega Not available.
UV Not available.
Pollen Not available.
Kvalitet zraka Not available.
Flu Activity Not available.
METAR LDDU 041130Z 27009KT 230V290 CAVOK 28/11 Q1022 NOSIG

More Conditions Fewer Conditions

Pritisak 30.18 u
Vidljivost -9999.0 milja
Oblaci
Točka rose 52 °F
Vlažnost 35%
Kiša 0.00 u
Visina snijega Not available.
UV Not available.
Pollen Not available.
Kvalitet zraka Not available.
Flu Activity Not available.
METAR LDDU 041130Z 27009KT 230V290 CAVOK 28/11 Q1022 NOSIG

More Conditions Fewer Conditions

10-Day Weather Forecast

×

Almanac

Astronomija

Jul. 04, 2015 Izlazak Zalazak
Trenutno vrijeme
Civilni sumrak
Nautički sumrak
Astronomski sumrak
Moon
Duljina trajanja vidljive svjetlosti
Duljina dana
Tomorrow will be .
, % of the Moon is Illuminated

Današnji ekstremi

Country Highs Country Lows

Community

WunderPhotos

Upload Photos

1,834,939 photos uploaded!

WunderBlogs® & News

Nearby

Kvalitet zraka

  Kvalitet zraka AQ Index Zagadjenje
Not available.

Visina snijega

Station Depth Visina

Earthquake Activity

Grad Distance Mag. Time & Date
Minimum magnitude displayed is 2.5.

Coastal Water Temperatures

Mjesto Temperatura

Stations

Nearby Weather Stations

Lokacija stanice Temp. Subjektivni osjećaj Točka rose Vlažnost Vjetar Precip. Elev Ažurirano Tip